createdAt,value
2023-02-08T00:02:07.290Z,-3.90
2023-02-08T00:04:37.159Z,-4.00
2023-02-08T00:07:06.355Z,-4.10
2023-02-08T00:09:37.204Z,-4.00
2023-02-08T00:12:07.219Z,-4.00
2023-02-08T00:14:36.267Z,-3.90
2023-02-08T00:17:05.904Z,-3.70
2023-02-08T00:19:35.529Z,-3.60
2023-02-08T00:22:04.436Z,-3.80
2023-02-08T00:24:33.816Z,-3.90
2023-02-08T00:27:04.401Z,-3.90
2023-02-08T00:29:34.009Z,-4.10
2023-02-08T00:32:03.463Z,-4.20
2023-02-08T00:34:33.355Z,-4.40
2023-02-08T00:37:02.317Z,-4.40
2023-02-08T00:39:32.026Z,-4.40
2023-02-08T00:42:01.050Z,-4.50
2023-02-08T00:44:31.387Z,-4.60
2023-02-08T00:47:00.122Z,-4.60
2023-02-08T00:49:29.265Z,-4.60
2023-02-08T00:51:58.621Z,-4.70
2023-02-08T00:54:27.815Z,-4.70
2023-02-08T00:56:56.891Z,-4.70
2023-02-08T00:59:28.305Z,-4.70
2023-02-08T01:01:59.383Z,-4.70
2023-02-08T01:04:28.461Z,-4.80
2023-02-08T01:06:57.247Z,-4.80
2023-02-08T01:09:26.117Z,-4.90
2023-02-08T01:11:55.193Z,-4.90
2023-02-08T01:14:24.010Z,-4.90
2023-02-08T01:16:53.569Z,-4.90
2023-02-08T01:19:24.641Z,-4.90
2023-02-08T01:21:54.113Z,-4.90
2023-02-08T01:24:24.717Z,-5.00
2023-02-08T01:26:53.481Z,-5.10
2023-02-08T01:29:22.761Z,-5.10
2023-02-08T01:31:52.298Z,-5.10
2023-02-08T01:34:23.106Z,-5.10
2023-02-08T01:36:51.805Z,-5.10
2023-02-08T01:39:20.849Z,-5.20
2023-02-08T01:41:49.961Z,-5.20
2023-02-08T01:44:56.276Z,-5.20
2023-02-08T01:47:25.003Z,-5.30
2023-02-08T01:49:55.737Z,-5.20
2023-02-08T01:52:28.877Z,-5.30
2023-02-08T01:55:03.964Z,-5.30
2023-02-08T01:57:33.263Z,-5.30
2023-02-08T02:00:08.705Z,-5.30
2023-02-08T02:02:45.386Z,-5.30
2023-02-08T02:05:16.376Z,-5.30
2023-02-08T02:07:45.969Z,-5.30
2023-02-08T02:10:21.064Z,-5.20
2023-02-08T02:12:51.369Z,-5.30
2023-02-08T02:15:20.543Z,-5.30
2023-02-08T02:17:49.743Z,-5.30
2023-02-08T02:20:25.544Z,-5.40
2023-02-08T02:23:37.088Z,-5.40
2023-02-08T02:26:36.262Z,-5.30
2023-02-08T02:29:41.136Z,-5.40
2023-02-08T02:32:21.210Z,-5.40
2023-02-08T02:34:58.196Z,-5.40
2023-02-08T02:37:39.127Z,-5.40
2023-02-08T02:40:20.036Z,-5.40
2023-02-08T02:43:19.919Z,-5.20
2023-02-08T02:45:56.881Z,-5.30
2023-02-08T02:48:33.264Z,-5.40
2023-02-08T02:51:07.470Z,-5.40
2023-02-08T02:53:43.420Z,-5.40
2023-02-08T02:56:17.317Z,-5.50
2023-02-08T02:58:47.711Z,-5.40
2023-02-08T03:01:26.278Z,-5.50
2023-02-08T03:03:58.034Z,-5.40
2023-02-08T03:06:39.639Z,-5.50
2023-02-08T03:09:41.078Z,-5.40
2023-02-08T03:12:24.387Z,-5.40
2023-02-08T03:15:05.635Z,-5.50
2023-02-08T03:17:44.166Z,-5.50
2023-02-08T03:20:20.808Z,-5.50
2023-02-08T03:23:00.552Z,-5.50
2023-02-08T03:25:38.958Z,-5.60
2023-02-08T03:28:11.955Z,-5.60
2023-02-08T03:30:53.160Z,-5.60
2023-02-08T03:33:28.394Z,-5.60
2023-02-08T03:36:04.904Z,-5.50
2023-02-08T03:38:38.236Z,-5.60
2023-02-08T03:41:10.292Z,-5.60
2023-02-08T03:43:44.242Z,-5.60
2023-02-08T03:46:17.693Z,-5.50
2023-02-08T03:48:51.622Z,-5.40
2023-02-08T03:51:24.695Z,-5.30
2023-02-08T03:53:57.175Z,-5.40
2023-02-08T03:56:33.972Z,-5.50
2023-02-08T03:59:08.162Z,-5.50
2023-02-08T04:01:43.528Z,-5.40
2023-02-08T04:04:14.117Z,-5.40
2023-02-08T04:06:44.449Z,-5.40
2023-02-08T04:09:13.389Z,-5.40
2023-02-08T04:11:42.883Z,-5.40
2023-02-08T04:14:12.039Z,-5.40
2023-02-08T04:16:40.827Z,-5.50
2023-02-08T04:19:09.831Z,-5.60
2023-02-08T04:21:39.279Z,-5.50
2023-02-08T04:24:10.632Z,-5.60
2023-02-08T04:26:39.638Z,-5.60
2023-02-08T04:29:09.540Z,-5.60
2023-02-08T04:31:39.143Z,-5.60
2023-02-08T04:34:08.795Z,-5.60
2023-02-08T04:36:38.036Z,-5.70
2023-02-08T04:39:07.015Z,-5.70
2023-02-08T04:41:37.622Z,-5.50
2023-02-08T04:44:06.603Z,-5.40
2023-02-08T04:46:37.174Z,-5.30
2023-02-08T04:49:06.089Z,-5.30
2023-02-08T04:51:36.100Z,-5.30
2023-02-08T04:54:04.751Z,-5.50
2023-02-08T04:56:34.344Z,-5.50
2023-02-08T04:59:05.709Z,-5.60
2023-02-08T05:01:35.353Z,-5.60
2023-02-08T05:04:04.907Z,-5.70
2023-02-08T05:06:33.928Z,-5.70
2023-02-08T05:09:02.998Z,-5.80
2023-02-08T05:11:31.779Z,-5.80
2023-02-08T05:14:01.173Z,-5.80
2023-02-08T05:16:31.969Z,-5.80
2023-02-08T05:19:01.003Z,-5.80
2023-02-08T05:21:29.845Z,-5.90
2023-02-08T05:23:58.644Z,-5.90
2023-02-08T05:26:27.623Z,-5.90
2023-02-08T05:28:57.345Z,-5.90
2023-02-08T05:31:27.514Z,-5.90
2023-02-08T05:33:58.498Z,-5.90
2023-02-08T05:36:28.006Z,-5.90
2023-02-08T05:38:58.049Z,-5.90
2023-02-08T05:41:27.441Z,-5.90
2023-02-08T05:43:56.957Z,-6.00
2023-02-08T05:46:26.655Z,-6.00
2023-02-08T05:48:57.160Z,-6.00
2023-02-08T05:51:26.780Z,-5.90
2023-02-08T05:53:55.702Z,-5.80
2023-02-08T05:56:25.082Z,-5.80
2023-02-08T05:58:54.908Z,-5.90
2023-02-08T06:01:24.237Z,-5.90
2023-02-08T06:03:53.062Z,-5.90
2023-02-08T06:06:23.944Z,-5.90
2023-02-08T06:08:53.224Z,-5.90
2023-02-08T06:11:22.336Z,-5.90
2023-02-08T06:13:51.564Z,-6.00
2023-02-08T06:16:20.892Z,-6.00
2023-02-08T06:18:49.915Z,-6.10
2023-02-08T06:21:19.282Z,-6.00
2023-02-08T06:23:50.154Z,-5.90
2023-02-08T06:26:19.480Z,-5.90
2023-02-08T06:28:49.820Z,-6.00
2023-02-08T06:31:19.159Z,-6.00
2023-02-08T06:33:49.420Z,-6.10
2023-02-08T06:36:18.842Z,-6.00
2023-02-08T06:38:52.474Z,-6.00
2023-02-08T06:41:22.889Z,-6.00
2023-02-08T06:43:52.436Z,-6.00
2023-02-08T06:46:22.987Z,-6.00
2023-02-08T06:48:51.981Z,-6.00
2023-02-08T06:51:21.814Z,-5.90
2023-02-08T06:53:53.611Z,-6.00
2023-02-08T06:56:23.314Z,-6.00
2023-02-08T06:58:54.201Z,-6.00
2023-02-08T07:01:23.532Z,-6.10
2023-02-08T07:03:53.189Z,-6.10
2023-02-08T07:06:23.158Z,-6.10
2023-02-08T07:08:54.512Z,-6.00
2023-02-08T07:11:25.333Z,-6.00
2023-02-08T07:13:56.124Z,-6.00
2023-02-08T07:16:26.532Z,-5.90
2023-02-08T07:18:55.955Z,-5.80
2023-02-08T07:21:25.910Z,-5.80
2023-02-08T07:23:57.365Z,-5.80
2023-02-08T07:26:26.670Z,-5.70
2023-02-08T07:28:56.457Z,-5.70
2023-02-08T07:31:25.960Z,-5.60
2023-02-08T07:33:54.691Z,-5.60
2023-02-08T07:36:23.914Z,-5.60
2023-02-08T07:38:53.190Z,-5.50
2023-02-08T07:41:23.672Z,-5.40
2023-02-08T07:43:53.985Z,-5.20
2023-02-08T07:46:24.005Z,-5.00
2023-02-08T07:48:53.008Z,-4.80
2023-02-08T07:51:22.344Z,-4.80
2023-02-08T07:53:51.947Z,-4.60
2023-02-08T07:56:21.198Z,-4.70
2023-02-08T07:58:52.043Z,-4.50
2023-02-08T08:01:23.111Z,-4.40
2023-02-08T08:03:55.410Z,-4.40
2023-02-08T08:06:25.511Z,-4.30
2023-02-08T08:08:55.446Z,-4.30
2023-02-08T08:11:24.641Z,-4.20
2023-02-08T08:13:57.936Z,-4.10
2023-02-08T08:16:27.168Z,-4.10
2023-02-08T08:18:55.929Z,-4.00
2023-02-08T08:21:25.423Z,-4.00
2023-02-08T08:23:55.802Z,-3.90
2023-02-08T08:26:24.787Z,-3.80
2023-02-08T08:28:55.715Z,-3.70
2023-02-08T08:31:25.873Z,-3.60
2023-02-08T08:33:54.633Z,-3.60
2023-02-08T08:36:23.755Z,-3.50
2023-02-08T08:38:53.738Z,-3.40
2023-02-08T08:41:23.529Z,-3.20
2023-02-08T08:43:52.827Z,-3.10
2023-02-08T08:46:24.037Z,-2.90
2023-02-08T08:48:53.935Z,-2.60
2023-02-08T08:51:23.002Z,-2.40
2023-02-08T08:53:52.667Z,-2.30
2023-02-08T08:56:22.560Z,-2.10
2023-02-08T08:58:51.486Z,-2.00
2023-02-08T09:01:20.286Z,-1.80
2023-02-08T09:03:51.077Z,-1.70
2023-02-08T09:06:20.510Z,-1.50
2023-02-08T09:08:51.709Z,-1.30
2023-02-08T09:11:21.636Z,-1.10
2023-02-08T09:13:53.178Z,-0.90
2023-02-08T09:16:22.464Z,-0.70
2023-02-08T09:18:53.576Z,-0.60
2023-02-08T09:21:26.421Z,-0.40
2023-02-08T09:23:55.458Z,-0.30
2023-02-08T09:26:25.843Z,0.00
2023-02-08T09:28:54.839Z,0.20
2023-02-08T09:31:26.441Z,0.40
2023-02-08T09:33:59.000Z,0.60
2023-02-08T09:36:30.765Z,0.70
2023-02-08T09:39:03.729Z,0.80
2023-02-08T09:41:59.809Z,0.80
2023-02-08T09:44:39.610Z,0.90
2023-02-08T09:47:18.593Z,1.00
2023-02-08T09:49:59.243Z,1.20
2023-02-08T09:52:36.760Z,1.40
2023-02-08T09:55:16.935Z,1.50
2023-02-08T09:57:48.036Z,1.60
2023-02-08T10:00:21.262Z,1.80
2023-02-08T10:02:51.606Z,2.00
2023-02-08T10:05:26.826Z,2.20
2023-02-08T10:07:56.651Z,2.30
2023-02-08T10:10:39.174Z,2.60
2023-02-08T10:13:25.662Z,2.70
2023-02-08T10:16:09.389Z,2.80
2023-02-08T10:18:48.436Z,3.00
2023-02-08T10:21:35.284Z,3.20
2023-02-08T10:24:18.876Z,3.50
2023-02-08T10:26:53.850Z,3.70
2023-02-08T10:29:47.770Z,3.90
2023-02-08T10:32:45.371Z,4.10
2023-02-08T10:35:16.347Z,4.20
2023-02-08T10:37:48.205Z,4.30
2023-02-08T10:40:32.832Z,4.40
2023-02-08T10:43:14.649Z,4.50
2023-02-08T10:45:50.557Z,4.60
2023-02-08T10:48:31.080Z,4.80
2023-02-08T10:51:00.265Z,4.90
2023-02-08T10:53:30.898Z,5.00
2023-02-08T10:55:59.733Z,5.20
2023-02-08T10:58:28.739Z,5.30
2023-02-08T11:00:59.966Z,5.40
2023-02-08T11:03:30.199Z,5.40
2023-02-08T11:06:00.272Z,5.50
2023-02-08T11:08:31.373Z,5.60
2023-02-08T11:11:04.641Z,5.80
2023-02-08T11:13:40.437Z,6.10
2023-02-08T11:16:13.331Z,6.40
2023-02-08T11:18:49.598Z,6.80
2023-02-08T11:21:26.330Z,7.30
2023-02-08T11:23:58.076Z,8.00
2023-02-08T11:26:34.713Z,8.90
2023-02-08T11:29:07.742Z,9.70
2023-02-08T11:31:37.118Z,10.60
2023-02-08T11:34:07.679Z,11.10
2023-02-08T11:36:39.028Z,11.70
2023-02-08T11:39:24.766Z,12.40
2023-02-08T11:41:57.610Z,12.50
2023-02-08T11:44:31.554Z,12.80
2023-02-08T11:47:05.391Z,13.80
2023-02-08T11:49:40.173Z,14.10
2023-02-08T11:52:21.697Z,13.70
2023-02-08T11:54:53.286Z,14.00
2023-02-08T11:57:24.944Z,14.30
2023-02-08T12:00:13.464Z,14.20
2023-02-08T12:02:47.301Z,14.00
2023-02-08T12:05:20.504Z,14.10
2023-02-08T12:08:02.214Z,14.40
2023-02-08T12:11:19.718Z,14.20
2023-02-08T12:14:24.789Z,14.90
2023-02-08T12:17:07.686Z,15.40
2023-02-08T12:20:02.631Z,15.50
2023-02-08T12:22:34.814Z,15.20
2023-02-08T12:25:26.429Z,15.10
2023-02-08T12:28:06.985Z,15.50
2023-02-08T12:30:40.442Z,16.20
2023-02-08T12:33:34.232Z,16.50
2023-02-08T12:36:24.038Z,16.40
2023-02-08T12:39:32.293Z,16.50
2023-02-08T12:42:15.237Z,16.70
2023-02-08T12:45:04.132Z,17.20
2023-02-08T12:47:54.941Z,16.60
2023-02-08T12:50:41.485Z,16.30
2023-02-08T12:53:18.356Z,16.80
2023-02-08T12:55:50.130Z,16.90
2023-02-08T12:58:29.940Z,17.30
2023-02-08T13:01:12.357Z,17.90
2023-02-08T13:03:48.648Z,16.90
2023-02-08T13:06:22.268Z,17.20
2023-02-08T13:08:57.584Z,17.60
2023-02-08T13:11:34.334Z,17.70
2023-02-08T13:14:08.052Z,17.50
2023-02-08T13:16:46.934Z,17.60
2023-02-08T13:19:30.183Z,18.10
2023-02-08T13:22:02.348Z,18.50
2023-02-08T13:24:39.906Z,19.10
2023-02-08T13:27:13.388Z,19.10
2023-02-08T13:29:43.609Z,19.00
2023-02-08T13:32:23.396Z,18.90
2023-02-08T13:34:58.795Z,18.80
2023-02-08T13:37:32.355Z,19.10
2023-02-08T13:40:07.057Z,19.60
2023-02-08T13:42:43.014Z,19.80
2023-02-08T13:45:24.700Z,19.60
2023-02-08T13:48:00.633Z,19.70
2023-02-08T13:50:49.505Z,19.30
2023-02-08T13:53:20.285Z,19.00
2023-02-08T13:56:09.510Z,19.20
2023-02-08T13:59:03.380Z,19.00
2023-02-08T14:01:35.046Z,18.90
2023-02-08T14:04:40.133Z,18.80
2023-02-08T14:07:25.874Z,18.60
2023-02-08T14:10:19.535Z,18.70
2023-02-08T14:12:58.841Z,18.80
2023-02-08T14:15:38.287Z,19.00
2023-02-08T14:18:22.302Z,18.90
2023-02-08T14:21:03.723Z,19.50
2023-02-08T14:23:40.670Z,19.90
2023-02-08T14:26:20.823Z,19.70
2023-02-08T14:28:57.315Z,18.80
2023-02-08T14:31:42.912Z,19.20
2023-02-08T14:34:33.658Z,19.40
2023-02-08T14:37:28.670Z,19.70
2023-02-08T14:40:33.078Z,20.00
2023-02-08T15:42:22.128Z,10.20
2023-02-08T15:44:54.010Z,10.00
2023-02-08T15:47:28.834Z,9.70
2023-02-08T16:09:22.246Z,8.30
2023-02-08T16:55:57.203Z,5.60
2023-02-08T16:58:26.539Z,4.30
2023-02-08T17:01:10.144Z,4.30
2023-02-08T17:03:41.629Z,3.80
2023-02-08T17:06:27.518Z,3.40
2023-02-08T17:08:56.488Z,3.20
2023-02-08T17:11:27.737Z,2.90
2023-02-08T17:13:57.600Z,2.70
2023-02-08T17:19:22.849Z,2.40
2023-02-08T17:21:52.393Z,2.10
2023-02-08T17:24:22.294Z,1.80
2023-02-08T17:27:47.501Z,1.50
2023-02-08T17:41:09.783Z,0.50
2023-02-08T17:44:52.605Z,0.70
2023-02-08T17:51:49.585Z,0.40
2023-02-08T17:55:03.081Z,0.40
2023-02-08T17:58:43.430Z,0.30
2023-02-08T18:08:37.764Z,0.00
2023-02-08T18:11:20.066Z,-0.30
2023-02-08T18:21:13.536Z,-0.70
2023-02-08T18:24:07.337Z,-0.90
2023-02-08T18:27:00.514Z,-0.90
2023-02-08T18:30:32.058Z,-1.00
2023-02-08T18:47:30.541Z,-0.60
2023-02-08T19:00:00.451Z,0.40
2023-02-08T19:05:47.422Z,0.60
2023-02-08T19:14:28.831Z,0.90
2023-02-08T19:17:33.779Z,1.00
2023-02-08T19:20:39.137Z,1.10
2023-02-08T19:23:26.487Z,1.00
2023-02-08T19:26:54.254Z,0.90
2023-02-08T19:34:04.444Z,0.40
2023-02-08T19:37:06.305Z,0.30
2023-02-08T19:39:43.731Z,0.00
2023-02-08T19:42:51.975Z,-0.20
2023-02-08T19:45:36.870Z,-0.10
2023-02-08T19:48:06.255Z,0.10
2023-02-08T19:50:35.550Z,0.20
2023-02-08T19:53:04.938Z,0.30
2023-02-08T19:55:34.130Z,0.40
2023-02-08T19:58:04.838Z,0.40
2023-02-08T20:00:33.872Z,0.30
2023-02-08T20:03:31.779Z,0.20
2023-02-08T20:06:00.536Z,0.20
2023-02-08T20:08:30.301Z,0.20
2023-02-08T20:10:59.996Z,0.10
2023-02-08T20:13:30.330Z,0.00
2023-02-08T20:16:01.316Z,0.00
2023-02-08T20:18:30.694Z,-0.10
2023-02-08T20:21:04.003Z,-0.10
2023-02-08T20:26:38.158Z,-0.10
2023-02-08T20:30:00.605Z,-0.20
2023-02-08T20:32:33.903Z,-0.10
2023-02-08T20:35:03.041Z,0.00
2023-02-08T20:37:31.705Z,0.00
2023-02-08T20:40:00.683Z,0.10
2023-02-08T20:42:29.802Z,0.10
2023-02-08T20:44:59.827Z,0.20
2023-02-08T20:47:31.868Z,0.20
2023-02-08T20:50:16.794Z,0.00
2023-02-08T20:52:47.420Z,-0.10
2023-02-08T20:55:17.131Z,-0.20
2023-02-08T20:57:46.443Z,-0.20
2023-02-08T21:00:18.731Z,-0.20
2023-02-08T21:02:47.913Z,-0.10
2023-02-08T21:05:18.974Z,0.20
2023-02-08T21:07:48.210Z,0.50
2023-02-08T21:10:17.440Z,0.60
2023-02-08T21:12:46.494Z,0.50
2023-02-08T21:15:15.575Z,0.50
2023-02-08T21:17:44.445Z,0.50
2023-02-08T21:20:14.752Z,0.50
2023-02-08T21:22:45.001Z,0.50
2023-02-08T21:25:13.823Z,0.60
2023-02-08T21:27:42.625Z,0.70
2023-02-08T21:30:12.522Z,0.60
2023-02-08T21:32:44.946Z,0.50
2023-02-08T21:35:14.078Z,0.40
2023-02-08T21:37:46.665Z,0.50
2023-02-08T21:40:15.775Z,0.50
2023-02-08T21:42:47.160Z,0.60
2023-02-08T21:45:16.211Z,0.70
2023-02-08T21:47:45.232Z,0.70
2023-02-08T21:50:31.764Z,0.80
2023-02-08T21:53:19.623Z,0.70
2023-02-08T21:55:49.694Z,0.70
2023-02-08T21:58:19.250Z,0.60
2023-02-08T22:00:48.700Z,0.50
2023-02-08T22:03:17.643Z,0.50
2023-02-08T22:06:05.271Z,0.40
2023-02-08T22:08:35.630Z,0.30
2023-02-08T22:11:05.144Z,0.30
2023-02-08T22:13:35.846Z,0.10
2023-02-08T22:16:10.432Z,-0.10
2023-02-08T22:18:41.456Z,-0.10
2023-02-08T22:21:10.421Z,-0.10
2023-02-08T22:23:40.326Z,-0.20
2023-02-08T22:26:09.682Z,-0.20
2023-02-08T22:28:38.644Z,-0.20
2023-02-08T22:31:07.545Z,-0.20
2023-02-08T22:33:36.184Z,-0.20
2023-02-08T22:36:08.426Z,-0.20
2023-02-08T22:38:37.429Z,-0.10
2023-02-08T22:41:12.537Z,-0.10
2023-02-08T22:43:41.440Z,0.00
2023-02-08T22:46:10.309Z,-0.10
2023-02-08T22:48:39.785Z,-0.10
2023-02-08T22:51:09.747Z,-0.20
2023-02-08T22:53:38.368Z,-0.30
2023-02-08T22:56:07.441Z,-0.40
2023-02-08T22:58:37.722Z,-0.50
2023-02-08T23:01:11.164Z,-0.50
2023-02-08T23:03:39.996Z,-0.50
2023-02-08T23:06:10.372Z,-0.50
2023-02-08T23:08:39.055Z,-0.60
2023-02-08T23:11:08.282Z,-0.70
2023-02-08T23:13:38.359Z,-0.80
2023-02-08T23:16:07.714Z,-0.90
2023-02-08T23:18:37.395Z,-1.00
2023-02-08T23:21:10.531Z,-1.10
2023-02-08T23:23:39.128Z,-1.00
2023-02-08T23:26:08.281Z,-1.10
2023-02-08T23:28:38.675Z,-1.10
2023-02-08T23:31:08.862Z,-1.10
2023-02-08T23:33:38.233Z,-1.10
2023-02-08T23:36:07.764Z,-0.90
2023-02-08T23:38:36.631Z,-0.90
2023-02-08T23:41:05.744Z,-0.90
2023-02-08T23:43:35.167Z,-0.80
2023-02-08T23:46:09.389Z,-0.80
2023-02-08T23:48:39.448Z,-0.70
2023-02-08T23:51:08.905Z,-0.80
2023-02-08T23:53:39.318Z,-0.80
2023-02-08T23:56:13.073Z,-0.70
2023-02-08T23:58:42.022Z,-0.70
